createdAt,value
2024-03-15T00:00:33.622Z,99047.34
2024-03-15T00:03:02.853Z,99048.50
2024-03-15T00:05:31.224Z,99046.09
2024-03-15T00:07:58.930Z,99047.78
2024-03-15T00:10:26.712Z,99045.78
2024-03-15T00:12:54.607Z,99045.44
2024-03-15T00:15:23.151Z,99045.34
2024-03-15T00:17:50.990Z,99042.91
2024-03-15T00:20:18.805Z,99047.78
2024-03-15T00:22:46.551Z,99041.66
2024-03-15T00:25:14.913Z,99040.06
2024-03-15T00:27:42.660Z,99044.28
2024-03-15T00:30:10.646Z,99045.88
2024-03-15T00:32:38.394Z,99040.91
2024-03-15T00:35:06.449Z,99046.09
2024-03-15T00:37:34.202Z,99047.34
2024-03-15T00:40:01.926Z,99039.75
2024-03-15T00:42:30.175Z,99041.53
2024-03-15T00:44:58.641Z,99047.25
2024-03-15T00:47:26.364Z,99043.34
2024-03-15T00:49:54.081Z,99040.06
2024-03-15T00:52:22.656Z,99026.31
2024-03-15T00:54:50.435Z,99035.09
2024-03-15T00:57:18.224Z,99037.22
2024-03-15T00:59:46.029Z,99029.28
2024-03-15T01:02:13.760Z,99020.81
2024-03-15T01:04:41.489Z,99023.25
2024-03-15T01:07:09.254Z,99022.63
2024-03-15T01:09:38.389Z,99023.47
2024-03-15T01:12:06.480Z,99020.59
2024-03-15T01:14:34.231Z,99016.59
2024-03-15T01:17:01.967Z,99012.25
2024-03-15T01:19:33.276Z,99005.06
2024-03-15T01:22:01.284Z,98999.88
2024-03-15T01:24:29.832Z,99003.16
2024-03-15T01:26:57.925Z,99000.41
2024-03-15T01:29:25.774Z,99003.59
2024-03-15T01:31:53.528Z,98999.56
2024-03-15T01:34:23.114Z,99008.34
2024-03-15T01:36:50.912Z,99015.00
2024-03-15T01:39:19.433Z,99013.84
2024-03-15T01:41:47.213Z,99003.06
2024-03-15T01:44:15.721Z,99005.50
2024-03-15T01:46:43.489Z,98999.47
2024-03-15T01:49:11.894Z,99003.47
2024-03-15T01:51:39.702Z,98992.38
2024-03-15T01:54:08.665Z,98989.31
2024-03-15T01:56:36.526Z,98993.22
2024-03-15T01:59:04.236Z,98983.50
2024-03-15T02:01:32.526Z,98985.09
2024-03-15T02:04:00.291Z,98984.97
2024-03-15T02:06:28.039Z,98981.38
2024-03-15T02:08:57.022Z,98984.03
2024-03-15T02:11:25.771Z,98990.38
2024-03-15T02:13:53.618Z,98996.72
2024-03-15T02:16:22.100Z,98991.84
2024-03-15T02:18:51.131Z,98990.16
2024-03-15T02:21:19.017Z,98986.03
2024-03-15T02:23:47.289Z,98995.03
2024-03-15T02:26:15.002Z,98994.28
2024-03-15T02:28:43.036Z,98996.19
2024-03-15T02:31:10.856Z,98997.03
2024-03-15T02:33:39.459Z,98995.34
2024-03-15T02:36:09.948Z,98994.81
2024-03-15T02:38:37.882Z,98991.22
2024-03-15T02:41:07.130Z,98994.28
2024-03-15T02:43:34.995Z,98996.72
2024-03-15T02:46:02.790Z,98997.78
2024-03-15T02:48:33.155Z,99004.00
2024-03-15T02:51:01.851Z,99001.16
2024-03-15T02:53:29.903Z,99001.25
2024-03-15T02:55:57.622Z,98993.88
2024-03-15T02:58:25.340Z,99000.84
2024-03-15T03:00:53.235Z,99001.16
2024-03-15T03:03:21.083Z,99007.94
2024-03-15T03:05:48.901Z,99001.69
2024-03-15T03:08:16.664Z,99006.03
2024-03-15T03:10:44.405Z,99009.72
2024-03-15T03:13:13.789Z,99011.72
2024-03-15T03:15:41.889Z,99009.94
2024-03-15T03:18:09.807Z,99023.25
2024-03-15T03:20:37.651Z,99013.53
2024-03-15T03:23:05.414Z,99020.72
2024-03-15T03:25:34.507Z,99017.31
2024-03-15T03:28:02.257Z,99026.09
2024-03-15T03:30:30.032Z,99021.03
2024-03-15T03:32:58.628Z,99019.53
2024-03-15T03:35:26.343Z,99031.78
2024-03-15T03:37:54.068Z,99026.63
2024-03-15T03:40:25.776Z,99022.19
2024-03-15T03:42:53.661Z,99026.31
2024-03-15T03:45:23.845Z,99025.47
2024-03-15T03:47:51.729Z,99017.53
2024-03-15T03:50:19.695Z,99020.59
2024-03-15T03:52:47.869Z,99014.53
2024-03-15T03:55:15.967Z,99021.44
2024-03-15T03:57:45.984Z,99016.25
2024-03-15T04:00:16.418Z,99017.19
2024-03-15T04:02:45.006Z,99009.25
2024-03-15T04:05:14.068Z,99010.09
2024-03-15T04:07:42.774Z,99012.75
2024-03-15T04:10:10.939Z,99009.47
2024-03-15T04:12:38.776Z,99009.25
2024-03-15T04:15:16.131Z,99008.66
2024-03-15T04:17:52.928Z,99021.03
2024-03-15T04:20:23.330Z,99018.38
2024-03-15T04:22:51.706Z,99019.53
2024-03-15T04:25:20.987Z,99016.06
2024-03-15T04:27:50.230Z,99021.63
2024-03-15T04:30:19.335Z,99011.38
2024-03-15T04:32:47.876Z,99024.56
2024-03-15T04:35:18.717Z,99017.38
2024-03-15T04:37:46.455Z,99014.75
2024-03-15T04:40:15.235Z,99018.34
2024-03-15T04:42:43.306Z,99022.78
2024-03-15T04:45:11.855Z,99019.50
2024-03-15T04:47:41.114Z,99024.56
2024-03-15T04:50:10.785Z,99021.94
2024-03-15T04:52:38.676Z,99022.78
2024-03-15T04:55:06.958Z,99024.56
2024-03-15T04:57:37.924Z,99027.22
2024-03-15T05:00:10.682Z,99019.81
2024-03-15T05:02:38.830Z,99015.91
2024-03-15T05:05:08.383Z,99018.97
2024-03-15T05:07:36.290Z,99018.69
2024-03-15T05:10:04.252Z,99022.28
2024-03-15T05:12:32.099Z,99017.94
2024-03-15T05:14:59.824Z,99013.41
2024-03-15T05:17:27.847Z,99016.06
2024-03-15T05:19:56.240Z,99006.44
2024-03-15T05:22:25.592Z,99002.75
2024-03-15T05:24:53.302Z,99013.09
2024-03-15T05:27:22.709Z,99008.66
2024-03-15T05:29:50.614Z,99005.16
2024-03-15T05:32:18.401Z,99013.09
2024-03-15T05:34:46.178Z,99011.41
2024-03-15T05:37:13.940Z,99011.41
2024-03-15T05:39:41.779Z,99011.41
2024-03-15T05:42:09.665Z,99012.75
2024-03-15T05:44:37.570Z,99016.25
2024-03-15T05:47:05.554Z,99027.00
2024-03-15T05:49:33.321Z,99016.44
2024-03-15T05:52:01.041Z,99022.88
2024-03-15T05:54:29.048Z,99025.50
2024-03-15T05:56:56.975Z,99018.75
2024-03-15T05:59:24.676Z,99023.28
2024-03-15T06:01:52.426Z,99027.50
2024-03-15T06:04:20.301Z,99023.56
2024-03-15T06:06:48.353Z,99037.50
2024-03-15T06:09:16.689Z,99036.38
2024-03-15T06:11:44.502Z,99041.34
2024-03-15T06:14:12.950Z,99047.25
2024-03-15T06:16:41.025Z,99045.16
2024-03-15T06:19:08.871Z,99053.25
2024-03-15T06:21:37.634Z,99051.47
2024-03-15T06:24:06.456Z,99053.25
2024-03-15T06:26:34.186Z,99052.72
2024-03-15T06:29:02.029Z,99054.41
2024-03-15T06:31:29.812Z,99051.47
2024-03-15T06:34:03.240Z,99054.75
2024-03-15T06:36:33.109Z,99063.41
2024-03-15T06:39:10.660Z,99062.78
2024-03-15T06:41:42.140Z,99070.94
2024-03-15T06:44:21.763Z,99059.41
2024-03-15T06:47:05.648Z,99067.97
2024-03-15T06:49:48.228Z,99074.22
2024-03-15T06:52:35.596Z,99056.16
2024-03-15T06:55:03.030Z,99058.91
2024-03-15T06:57:30.784Z,99053.41
2024-03-15T06:59:58.637Z,99060.38
2024-03-15T07:02:26.384Z,99053.41
2024-03-15T07:04:54.128Z,99064.38
2024-03-15T07:07:22.015Z,99072.00
2024-03-15T07:09:49.899Z,99072.84
2024-03-15T07:12:17.758Z,99068.41
2024-03-15T07:14:48.611Z,99069.38
2024-03-15T07:17:18.787Z,99077.00
2024-03-15T07:19:46.663Z,99082.84
2024-03-15T07:22:16.790Z,99078.78
2024-03-15T07:24:44.737Z,99076.59
2024-03-15T07:27:12.626Z,99081.56
2024-03-15T07:29:40.375Z,99084.97
2024-03-15T07:32:08.346Z,99083.16
2024-03-15T07:34:36.067Z,99083.38
2024-03-15T07:37:05.710Z,99096.59
2024-03-15T07:39:33.770Z,99096.16
2024-03-15T07:42:01.628Z,99098.06
2024-03-15T07:44:29.528Z,99098.06
2024-03-15T07:46:57.470Z,99097.22
2024-03-15T07:49:25.715Z,99098.28
2024-03-15T07:51:54.737Z,99095.56
2024-03-15T07:54:24.026Z,99097.19
2024-03-15T07:56:53.887Z,99099.91
2024-03-15T07:59:21.743Z,99103.44
2024-03-15T08:01:49.803Z,99103.44
2024-03-15T08:04:17.581Z,99109.81
2024-03-15T08:06:46.052Z,99106.66
2024-03-15T08:09:14.224Z,99112.69
2024-03-15T08:11:43.676Z,99112.03
2024-03-15T08:14:12.097Z,99112.44
2024-03-15T08:16:44.521Z,99119.91
2024-03-15T08:19:12.494Z,99118.63
2024-03-15T08:21:40.541Z,99124.31
2024-03-15T08:24:10.625Z,99123.16
2024-03-15T08:26:40.948Z,99115.56
2024-03-15T08:29:09.777Z,99125.03
2024-03-15T08:31:37.991Z,99126.78
2024-03-15T08:34:06.125Z,99118.50
2024-03-15T08:36:36.168Z,99122.75
2024-03-15T08:39:04.825Z,99124.09
2024-03-15T08:41:32.738Z,99115.97
2024-03-15T08:44:00.748Z,99121.91
2024-03-15T08:46:32.337Z,99124.53
2024-03-15T08:49:00.557Z,99123.56
2024-03-15T08:51:28.960Z,99127.19
2024-03-15T08:53:56.687Z,99137.00
2024-03-15T08:56:25.575Z,99143.53
2024-03-15T08:58:53.324Z,99136.03
2024-03-15T09:01:25.231Z,99140.56
2024-03-15T09:03:53.335Z,99139.06
2024-03-15T09:06:22.007Z,99132.28
2024-03-15T09:08:55.647Z,99138.41
2024-03-15T09:11:24.148Z,99129.44
2024-03-15T09:13:54.003Z,99129.81
2024-03-15T09:16:22.818Z,99139.50
2024-03-15T09:18:52.141Z,99136.03
2024-03-15T09:21:20.804Z,99136.13
2024-03-15T09:23:48.581Z,99129.69
2024-03-15T09:26:17.550Z,99136.69
2024-03-15T09:28:46.679Z,99135.06
2024-03-15T09:31:29.908Z,99138.88
2024-03-15T09:34:03.929Z,99130.84
2024-03-15T09:36:33.498Z,99140.25
2024-03-15T09:39:00.334Z,99132.44
2024-03-15T09:41:28.057Z,99128.66
2024-03-15T09:43:55.874Z,99129.38
2024-03-15T09:46:25.827Z,99130.31
2024-03-15T09:48:53.686Z,99137.41
2024-03-15T09:51:21.680Z,99121.91
2024-03-15T09:53:49.524Z,99124.34
2024-03-15T09:56:17.230Z,99115.38
2024-03-15T09:58:44.993Z,99125.84
2024-03-15T10:01:14.176Z,99123.53
2024-03-15T10:03:43.803Z,99125.78
2024-03-15T10:06:13.017Z,99131.59
2024-03-15T10:08:41.069Z,99132.66
2024-03-15T10:11:08.861Z,99127.38
2024-03-15T10:13:36.838Z,99127.19
2024-03-15T10:16:06.225Z,99129.91
2024-03-15T10:18:35.369Z,99129.53
2024-03-15T10:21:03.143Z,99132.28
2024-03-15T10:23:30.859Z,99124.69
2024-03-15T10:25:58.731Z,99130.94
2024-03-15T10:28:26.639Z,99133.47
2024-03-15T10:30:54.393Z,99138.25
2024-03-15T10:33:22.352Z,99133.06
2024-03-15T10:35:50.125Z,99131.06
2024-03-15T10:38:17.985Z,99132.22
2024-03-15T10:40:45.913Z,99137.19
2024-03-15T10:43:13.850Z,99129.38
2024-03-15T10:45:44.780Z,99128.00
2024-03-15T10:48:12.720Z,99130.13
2024-03-15T10:50:40.860Z,99128.22
2024-03-15T10:53:09.981Z,99128.84
2024-03-15T10:55:37.799Z,99130.00
2024-03-15T10:58:06.299Z,99127.38
2024-03-15T11:00:34.400Z,99121.13
2024-03-15T11:03:12.180Z,99124.72
2024-03-15T11:05:40.103Z,99115.84
2024-03-15T11:08:07.951Z,99130.00
2024-03-15T11:10:35.762Z,99127.25
2024-03-15T11:13:04.299Z,99125.56
2024-03-15T11:15:32.141Z,99120.28
2024-03-15T11:18:00.563Z,99118.19
2024-03-15T11:20:28.470Z,99115.75
2024-03-15T11:22:56.942Z,99119.88
2024-03-15T11:25:25.134Z,99119.25
2024-03-15T11:27:57.867Z,99108.47
2024-03-15T11:30:28.481Z,99106.78
2024-03-15T11:32:57.062Z,99110.47
2024-03-15T11:35:25.013Z,99109.00
2024-03-15T11:37:56.245Z,99114.59
2024-03-15T11:40:25.757Z,99114.38
2024-03-15T11:43:02.305Z,99113.44
2024-03-15T11:45:36.301Z,99119.03
2024-03-15T11:48:04.149Z,99113.13
2024-03-15T11:50:31.958Z,99115.88
2024-03-15T11:53:00.341Z,99113.44
2024-03-15T11:55:28.036Z,99108.69
2024-03-15T11:57:56.129Z,99113.53
2024-03-15T12:00:25.181Z,99116.41
2024-03-15T12:02:54.042Z,99111.31
2024-03-15T12:05:21.887Z,99112.38
2024-03-15T12:07:49.669Z,99120.31
2024-03-15T12:10:17.496Z,99113.22
2024-03-15T12:12:47.078Z,99106.16
2024-03-15T12:15:28.255Z,99110.34
2024-03-15T12:17:58.002Z,99102.31
2024-03-15T12:20:26.666Z,99110.34
2024-03-15T12:22:54.495Z,99100.84
2024-03-15T12:25:22.260Z,99100.13
2024-03-15T12:27:50.004Z,99102.44
2024-03-15T12:30:18.216Z,99092.81
2024-03-15T12:32:46.187Z,99097.38
2024-03-15T12:35:14.267Z,99096.19
2024-03-15T12:37:42.653Z,99091.25
2024-03-15T12:40:12.240Z,99079.28
2024-03-15T12:42:40.169Z,99094.72
2024-03-15T12:45:09.422Z,99091.00
2024-03-15T12:47:38.214Z,99087.28
2024-03-15T12:50:07.198Z,99083.06
2024-03-15T12:52:35.003Z,99078.50
2024-03-15T12:55:02.773Z,99093.97
2024-03-15T12:57:30.531Z,99088.34
2024-03-15T12:59:58.291Z,99069.09
2024-03-15T13:02:27.169Z,99084.34
2024-03-15T13:04:54.841Z,99075.56
2024-03-15T13:07:22.600Z,99068.47
2024-03-15T13:09:50.334Z,99070.38
2024-03-15T13:12:18.140Z,99066.03
2024-03-15T13:14:45.895Z,99065.72
2024-03-15T13:17:13.608Z,99069.22
2024-03-15T13:19:41.350Z,99062.00
2024-03-15T13:22:09.111Z,99064.88
2024-03-15T13:24:37.784Z,99069.22
2024-03-15T13:27:06.750Z,99071.84
2024-03-15T13:29:35.802Z,99067.94
2024-03-15T13:32:03.799Z,99058.00
2024-03-15T13:34:31.528Z,99056.75
2024-03-15T13:36:59.263Z,99059.78
2024-03-15T13:39:29.421Z,99065.41
2024-03-15T13:41:59.153Z,99065.50
2024-03-15T13:44:27.971Z,99063.72
2024-03-15T13:46:56.486Z,99056.41
2024-03-15T13:49:24.197Z,99062.66
2024-03-15T13:51:52.520Z,99067.81
2024-03-15T13:54:20.356Z,99054.28
2024-03-15T13:56:48.268Z,99053.34
2024-03-15T13:59:15.986Z,99060.31
2024-03-15T14:01:46.473Z,99061.81
2024-03-15T14:04:17.052Z,99065.72
2024-03-15T14:06:44.820Z,99064.03
2024-03-15T14:09:12.836Z,99058.41
2024-03-15T14:11:40.632Z,99062.75
2024-03-15T14:14:08.364Z,99063.91
2024-03-15T14:16:37.101Z,99054.94
2024-03-15T14:19:05.716Z,99059.78
2024-03-15T14:21:33.686Z,99058.09
2024-03-15T14:24:01.448Z,99067.50
2024-03-15T14:26:29.147Z,99069.22
2024-03-15T14:28:56.888Z,99068.78
2024-03-15T14:31:24.661Z,99062.97
2024-03-15T14:33:52.482Z,99066.66
2024-03-15T14:36:20.381Z,99082.00
2024-03-15T14:38:49.708Z,99071.63
2024-03-15T14:41:17.808Z,99071.31
2024-03-15T14:43:45.551Z,99061.69
2024-03-15T14:46:13.326Z,99067.19
2024-03-15T14:48:41.284Z,99068.91
2024-03-15T14:51:09.120Z,99060.75
2024-03-15T14:53:36.852Z,99050.38
2024-03-15T14:56:04.810Z,99044.78
2024-03-15T14:58:32.686Z,99048.91
2024-03-15T15:01:01.763Z,99046.03
2024-03-15T15:03:29.668Z,99042.00
2024-03-15T15:05:57.605Z,99050.38
2024-03-15T15:08:25.902Z,99051.97
2024-03-15T15:10:54.150Z,99055.34
2024-03-15T15:13:22.093Z,99041.91
2024-03-15T15:15:52.128Z,99051.13
2024-03-15T15:18:20.355Z,99054.81
2024-03-15T15:20:50.622Z,99055.88
2024-03-15T15:23:18.540Z,99057.88
2024-03-15T15:25:46.320Z,99056.19
2024-03-15T15:28:14.277Z,99048.25
2024-03-15T15:30:41.059Z,99060.75
2024-03-15T15:33:09.614Z,99057.25
2024-03-15T15:35:37.396Z,99049.22
2024-03-15T15:38:05.592Z,99041.78
2024-03-15T15:40:33.440Z,99045.19
2024-03-15T15:43:01.762Z,99049.63
2024-03-15T15:45:32.849Z,99052.69
2024-03-15T15:48:01.757Z,99056.19
2024-03-15T15:50:29.731Z,99060.09
2024-03-15T15:52:57.587Z,99067.31
2024-03-15T15:55:25.833Z,99068.16
2024-03-15T15:57:55.502Z,99082.75
2024-03-15T16:00:24.518Z,99069.84
2024-03-15T16:02:52.624Z,99066.78
2024-03-15T16:05:20.609Z,99074.81
2024-03-15T16:07:48.546Z,99070.16
2024-03-15T16:10:17.514Z,99071.22
2024-03-15T16:12:46.264Z,99070.78
2024-03-15T16:15:14.143Z,99076.41
2024-03-15T16:17:42.118Z,99071.84
2024-03-15T16:20:10.523Z,99080.00
2024-03-15T16:22:38.333Z,99076.63
2024-03-15T16:25:06.723Z,99078.41
2024-03-15T16:27:34.830Z,99078.50
2024-03-15T16:30:03.386Z,99090.28
2024-03-15T16:32:31.386Z,99088.81
2024-03-15T16:34:59.242Z,99096.94
2024-03-15T16:37:26.979Z,99102.97
2024-03-15T16:39:55.208Z,99102.44
2024-03-15T16:42:23.090Z,99104.66
2024-03-15T16:44:53.473Z,99132.34
2024-03-15T16:47:21.941Z,99234.56
2024-03-15T16:49:49.677Z,99225.03
2024-03-15T16:52:19.727Z,99231.66
2024-03-15T16:54:48.031Z,99219.91
2024-03-15T16:57:15.928Z,99215.03
2024-03-15T16:59:43.760Z,99211.53
2024-03-15T17:02:12.333Z,99230.38
2024-03-15T17:04:40.215Z,99248.13
2024-03-15T17:07:08.152Z,99244.72
2024-03-15T17:09:36.145Z,99245.13
2024-03-15T17:12:05.467Z,99239.94
2024-03-15T17:14:33.722Z,99224.56
2024-03-15T17:17:01.534Z,99222.28
2024-03-15T17:19:29.280Z,99225.78
2024-03-15T17:21:57.024Z,99229.75
2024-03-15T17:24:25.784Z,99216.53
2024-03-15T17:26:53.422Z,99214.00
2024-03-15T17:29:21.270Z,99230.22
2024-03-15T17:31:48.997Z,99220.56
2024-03-15T17:34:16.710Z,99226.69
2024-03-15T17:36:44.662Z,99236.25
2024-03-15T17:39:12.800Z,99233.50
2024-03-15T17:41:40.662Z,99234.47
2024-03-15T17:44:08.524Z,99238.78
2024-03-15T17:46:36.548Z,99240.41
2024-03-15T17:49:04.475Z,99235.31
2024-03-15T17:51:32.329Z,99240.59
2024-03-15T17:54:00.263Z,99248.31
2024-03-15T17:56:28.031Z,99250.22
2024-03-15T17:58:55.739Z,99238.78
2024-03-15T18:01:23.434Z,99235.09
2024-03-15T18:03:51.376Z,99226.44
2024-03-15T18:06:19.168Z,99230.13
2024-03-15T18:08:47.489Z,99224.34
2024-03-15T18:11:15.258Z,99205.75
2024-03-15T18:13:42.996Z,99202.00
2024-03-15T18:16:10.858Z,99194.09
2024-03-15T18:18:38.765Z,99196.78
2024-03-15T18:21:06.554Z,99205.97
2024-03-15T18:23:34.337Z,99206.16
2024-03-15T18:26:02.079Z,99213.34
2024-03-15T18:28:29.826Z,99225.78
2024-03-15T18:30:58.481Z,99217.97
2024-03-15T18:33:26.323Z,99210.25
2024-03-15T18:35:54.296Z,99211.19
2024-03-15T18:38:22.006Z,99202.63
2024-03-15T18:40:49.758Z,99200.53
2024-03-15T18:43:18.202Z,99199.13
2024-03-15T18:45:48.546Z,99207.22
2024-03-15T18:48:16.475Z,99222.38
2024-03-15T18:50:44.296Z,99213.88
2024-03-15T18:53:12.062Z,99225.00
2024-03-15T18:55:39.770Z,99217.06
2024-03-15T18:58:09.633Z,99214.72
2024-03-15T19:00:37.495Z,99216.97
2024-03-15T19:03:05.689Z,99215.06
2024-03-15T19:05:35.314Z,99212.44
2024-03-15T19:08:03.324Z,99213.47
2024-03-15T19:10:31.167Z,99216.22
2024-03-15T19:13:00.447Z,99221.31
2024-03-15T19:15:29.590Z,99218.66
2024-03-15T19:17:56.951Z,99223.41
2024-03-15T19:20:25.976Z,99216.41
2024-03-15T19:22:54.096Z,99220.00
2024-03-15T19:25:21.901Z,99212.38
2024-03-15T19:27:49.733Z,99220.00
2024-03-15T19:30:17.567Z,99214.63
2024-03-15T19:32:45.346Z,99230.56
2024-03-15T19:35:13.804Z,99231.41
2024-03-15T19:37:42.655Z,99227.38
2024-03-15T19:40:11.762Z,99237.66
2024-03-15T19:42:39.820Z,99239.66
2024-03-15T19:45:08.523Z,99236.25
2024-03-15T19:47:36.394Z,99229.34
2024-03-15T19:50:04.251Z,99231.13
2024-03-15T19:52:33.349Z,99233.03
2024-03-15T19:55:01.287Z,99230.59
2024-03-15T19:57:29.154Z,99240.59
2024-03-15T19:59:56.951Z,99243.88
2024-03-15T20:02:24.719Z,99240.41
2024-03-15T20:04:52.706Z,99229.06
2024-03-15T20:07:20.508Z,99228.22
2024-03-15T20:09:48.268Z,99223.03
2024-03-15T20:12:16.007Z,99226.69
2024-03-15T20:14:43.770Z,99226.16
2024-03-15T20:17:11.549Z,99223.72
2024-03-15T20:19:39.243Z,99218.91
2024-03-15T20:22:07.703Z,99219.56
2024-03-15T20:24:35.640Z,99215.88
2024-03-15T20:27:03.392Z,99224.47
2024-03-15T20:29:31.123Z,99227.84
2024-03-15T20:31:58.868Z,99224.00
2024-03-15T20:34:26.722Z,99233.63
2024-03-15T20:36:54.489Z,99236.16
2024-03-15T20:39:23.467Z,99235.66
2024-03-15T20:41:52.110Z,99239.66
2024-03-15T20:44:19.869Z,99238.31
2024-03-15T20:46:47.651Z,99239.00
2024-03-15T20:49:16.962Z,99237.47
2024-03-15T20:51:47.718Z,99237.19
2024-03-15T20:54:15.612Z,99243.88
2024-03-15T20:56:43.484Z,99241.13
2024-03-15T20:59:11.292Z,99247.28
2024-03-15T21:01:42.002Z,99239.44
2024-03-15T21:04:10.189Z,99238.59
2024-03-15T21:06:38.009Z,99235.09
2024-03-15T21:09:06.532Z,99233.63
2024-03-15T21:11:34.333Z,99239.75
2024-03-15T21:14:02.629Z,99244.72
2024-03-15T21:16:30.393Z,99249.16
2024-03-15T21:18:58.551Z,99257.38
2024-03-15T21:21:26.319Z,99267.09
2024-03-15T21:23:54.614Z,99253.81
2024-03-15T21:26:22.430Z,99258.13
2024-03-15T21:28:50.191Z,99248.31
2024-03-15T21:31:17.976Z,99254.44
2024-03-15T21:33:47.890Z,99252.94
2024-03-15T21:36:15.770Z,99246.97
2024-03-15T21:38:43.585Z,99244.34
2024-03-15T21:41:13.539Z,99248.88
2024-03-15T21:43:41.691Z,99256.06
2024-03-15T21:46:11.120Z,99251.81
2024-03-15T21:48:39.285Z,99257.28
2024-03-15T21:51:07.373Z,99255.78
2024-03-15T21:53:35.148Z,99255.88
2024-03-15T21:56:06.162Z,99258.72
2024-03-15T21:58:33.894Z,99266.63
2024-03-15T22:01:03.055Z,99263.06
2024-03-15T22:03:33.000Z,99258.53
2024-03-15T22:06:00.774Z,99261.34
2024-03-15T22:08:28.543Z,99259.75
2024-03-15T22:10:56.478Z,99256.56
2024-03-15T22:13:24.512Z,99255.38
2024-03-15T22:15:54.988Z,99259.69
2024-03-15T22:18:22.832Z,99258.66
2024-03-15T22:20:50.640Z,99251.47
2024-03-15T22:23:18.407Z,99247.03
2024-03-15T22:25:49.411Z,99245.25
2024-03-15T22:28:17.303Z,99253.53
2024-03-15T22:30:45.062Z,99248.41
2024-03-15T22:33:13.450Z,99241.63
2024-03-15T22:35:41.152Z,99253.50
2024-03-15T22:38:08.868Z,99256.59
2024-03-15T22:40:36.580Z,99266.13
2024-03-15T22:43:04.504Z,99281.22
2024-03-15T22:45:32.283Z,99277.09
2024-03-15T22:48:01.524Z,99293.44
2024-03-15T22:50:29.303Z,99290.19
2024-03-15T22:52:57.209Z,99292.19
2024-03-15T22:55:25.088Z,99302.00
2024-03-15T22:57:52.887Z,99303.84
2024-03-15T23:00:22.070Z,99304.03
2024-03-15T23:02:54.061Z,99308.56
2024-03-15T23:05:22.361Z,99307.06
2024-03-15T23:07:50.240Z,99311.56
2024-03-15T23:10:18.380Z,99322.19
2024-03-15T23:12:48.353Z,99321.06
2024-03-15T23:15:16.386Z,99316.38
2024-03-15T23:17:44.502Z,99322.00
2024-03-15T23:20:13.736Z,99320.41
2024-03-15T23:22:45.028Z,99310.25
2024-03-15T23:25:13.699Z,99315.72
2024-03-15T23:27:41.625Z,99322.09
2024-03-15T23:30:09.892Z,99312.97
2024-03-15T23:32:37.732Z,99314.56
2024-03-15T23:35:08.893Z,99306.00
2024-03-15T23:37:36.613Z,99301.97
2024-03-15T23:40:05.781Z,99300.81
2024-03-15T23:42:34.335Z,99293.09
2024-03-15T23:45:02.243Z,99285.38
2024-03-15T23:47:31.498Z,99294.03
2024-03-15T23:49:59.252Z,99302.63
2024-03-15T23:52:27.470Z,99298.09
2024-03-15T23:54:55.258Z,99298.00
2024-03-15T23:57:23.186Z,99298.09
2024-03-15T23:59:51.297Z,99298.38
